createdAt,value
2018-02-16T00:00:40.377Z,0
2018-02-16T00:01:40.055Z,0
2018-02-16T00:02:40.068Z,0
2018-02-16T00:03:40.574Z,0
2018-02-16T00:04:40.284Z,0
2018-02-16T00:05:40.374Z,0
2018-02-16T00:06:40.012Z,0
2018-02-16T00:07:40.248Z,0
2018-02-16T00:08:40.006Z,0
2018-02-16T00:09:40.242Z,0
2018-02-16T00:10:40.495Z,0
2018-02-16T00:11:39.982Z,0
2018-02-16T00:12:40.222Z,0
2018-02-16T00:13:40.484Z,0
2018-02-16T00:14:40.465Z,0
2018-02-16T00:15:39.746Z,0
2018-02-16T00:16:39.949Z,0
2018-02-16T00:17:40.190Z,0
2018-02-16T00:18:40.176Z,0
2018-02-16T00:19:40.170Z,0
2018-02-16T00:20:39.961Z,0
2018-02-16T00:21:40.152Z,0
2018-02-16T00:22:39.888Z,0
2018-02-16T00:23:40.136Z,0
2018-02-16T00:24:40.123Z,0
2018-02-16T00:25:40.132Z,0
2018-02-16T00:26:39.855Z,0
2018-02-16T00:27:40.364Z,0
2018-02-16T00:28:40.100Z,0
2018-02-16T00:29:40.094Z,0
2018-02-16T00:30:39.894Z,0
2018-02-16T00:31:40.351Z,0
2018-02-16T00:32:39.822Z,0
2018-02-16T00:33:39.807Z,0
2018-02-16T00:34:40.324Z,0
2018-02-16T00:35:40.390Z,0
2018-02-16T00:36:42.142Z,0
2018-02-16T00:37:39.787Z,0
2018-02-16T00:38:39.770Z,0
2018-02-16T00:39:40.273Z,0
2018-02-16T00:40:39.832Z,0
2018-02-16T00:41:39.767Z,0
2018-02-16T00:42:39.757Z,0
2018-02-16T00:43:39.490Z,0
2018-02-16T00:44:39.727Z,0
2018-02-16T00:45:40.096Z,0
2018-02-16T00:46:39.719Z,0
2018-02-16T00:47:39.802Z,0
2018-02-16T00:48:39.968Z,0
2018-02-16T00:49:39.993Z,0
2018-02-16T00:50:39.447Z,0
2018-02-16T00:51:39.974Z,0
2018-02-16T00:52:39.712Z,0
2018-02-16T00:53:39.920Z,0
2018-02-16T00:54:39.664Z,0
2018-02-16T00:55:39.978Z,0
2018-02-16T00:56:39.398Z,0
2018-02-16T00:57:39.637Z,0
2018-02-16T00:58:39.876Z,0
2018-02-16T00:59:40.142Z,0
2018-02-16T01:00:39.961Z,0
2018-02-16T01:01:39.615Z,0
2018-02-16T01:02:39.848Z,0
2018-02-16T01:03:39.865Z,0
2018-02-16T01:04:39.853Z,0
2018-02-16T01:05:39.472Z,0
2018-02-16T01:06:41.701Z,0
2018-02-16T01:07:39.604Z,0
2018-02-16T01:08:40.069Z,0
2018-02-16T01:09:39.557Z,0
2018-02-16T01:10:39.599Z,0
2018-02-16T01:11:39.547Z,0
2018-02-16T01:12:39.787Z,0
2018-02-16T01:13:39.289Z,0
2018-02-16T01:14:39.801Z,0
2018-02-16T01:15:39.792Z,0
2018-02-16T01:16:40.032Z,0
2018-02-16T01:17:40.030Z,0
2018-02-16T01:18:39.268Z,0
2018-02-16T01:19:39.309Z,0
2018-02-16T01:20:39.728Z,0
2018-02-16T01:21:39.207Z,0
2018-02-16T01:22:39.211Z,0
2018-02-16T01:23:39.961Z,0
2018-02-16T01:24:39.439Z,0
2018-02-16T01:25:39.973Z,0
2018-02-16T01:26:39.679Z,0
2018-02-16T01:27:39.180Z,0
2018-02-16T01:28:39.665Z,0
2018-02-16T01:29:39.668Z,0
2018-02-16T01:30:39.476Z,0
2018-02-16T01:31:39.642Z,0
2018-02-16T01:32:39.637Z,0
2018-02-16T01:33:39.380Z,0
2018-02-16T01:34:39.368Z,0
2018-02-16T01:35:39.358Z,0
2018-02-16T01:36:39.608Z,0
2018-02-16T01:37:39.654Z,0
2018-02-16T01:38:39.851Z,0
2018-02-16T01:39:39.850Z,0
2018-02-16T01:40:39.656Z,0
2018-02-16T01:41:39.830Z,0
2018-02-16T01:42:39.369Z,0
2018-02-16T01:43:39.340Z,0
2018-02-16T01:44:39.814Z,0
2018-02-16T01:45:39.416Z,0
2018-02-16T01:46:39.857Z,0
2018-02-16T01:47:39.289Z,0
2018-02-16T01:48:39.267Z,0
2018-02-16T01:49:39.523Z,0
2018-02-16T01:50:39.537Z,0
2018-02-16T01:51:39.794Z,0
2018-02-16T01:52:39.500Z,0
2018-02-16T01:53:39.495Z,0
2018-02-16T01:54:39.245Z,0
2018-02-16T01:55:39.254Z,0
2018-02-16T01:56:39.216Z,0
2018-02-16T01:57:39.465Z,0
2018-02-16T01:58:39.193Z,0
2018-02-16T01:59:39.691Z,0
2018-02-16T02:00:39.496Z,0
2018-02-16T02:01:39.430Z,0
2018-02-16T02:02:39.183Z,0
2018-02-16T02:03:39.416Z,0
2018-02-16T02:04:39.154Z,0
2018-02-16T02:05:39.244Z,0
2018-02-16T02:06:42.397Z,0
2018-02-16T02:07:39.638Z,0
2018-02-16T02:08:39.377Z,0
2018-02-16T02:09:39.367Z,0
2018-02-16T02:10:39.375Z,0
2018-02-16T02:11:39.632Z,0
2018-02-16T02:12:39.095Z,0
2018-02-16T02:13:39.361Z,0
2018-02-16T02:14:38.824Z,0
2018-02-16T02:15:39.093Z,0
2018-02-16T02:16:39.576Z,0
2018-02-16T02:17:40.112Z,0
2018-02-16T02:18:39.320Z,0
2018-02-16T02:19:39.307Z,0
2018-02-16T02:20:39.687Z,0
2018-02-16T02:21:39.561Z,0
2018-02-16T02:22:39.328Z,0
2018-02-16T02:23:38.771Z,0
2018-02-16T02:24:39.028Z,0
2018-02-16T02:25:39.330Z,0
2018-02-16T02:26:39.261Z,0
2018-02-16T02:27:38.745Z,0
2018-02-16T02:28:39.242Z,0
2018-02-16T02:29:39.231Z,0
2018-02-16T02:30:39.042Z,0
2018-02-16T02:31:39.498Z,0
2018-02-16T02:32:39.218Z,0
2018-02-16T02:33:38.950Z,0
2018-02-16T02:34:38.957Z,0
2018-02-16T02:35:39.548Z,0
2018-02-16T02:36:39.189Z,0
2018-02-16T02:37:40.706Z,0
2018-02-16T02:38:39.172Z,0
2018-02-16T02:39:39.165Z,0
2018-02-16T02:40:38.947Z,0
2018-02-16T02:41:39.153Z,0
2018-02-16T02:42:39.393Z,0
2018-02-16T02:43:39.389Z,0
2018-02-16T02:44:39.253Z,0
2018-02-16T02:45:39.456Z,0
2018-02-16T02:46:38.877Z,0
2018-02-16T02:47:39.362Z,0
2018-02-16T02:48:39.372Z,0
2018-02-16T02:49:39.343Z,0
2018-02-16T02:50:39.144Z,0
2018-02-16T02:51:38.828Z,0
2018-02-16T02:52:39.348Z,0
2018-02-16T02:53:39.310Z,0
2018-02-16T02:54:38.804Z,0
2018-02-16T02:55:38.590Z,0
2018-02-16T02:56:39.047Z,0
2018-02-16T02:57:38.801Z,0
2018-02-16T02:58:39.276Z,0
2018-02-16T02:59:39.024Z,0
2018-02-16T03:00:39.340Z,0
2018-02-16T03:01:38.513Z,0
2018-02-16T03:02:39.012Z,0
2018-02-16T03:03:38.741Z,0
2018-02-16T03:04:39.236Z,0
2018-02-16T03:05:39.570Z,0
2018-02-16T03:06:39.217Z,0
2018-02-16T03:07:40.829Z,0
2018-02-16T03:08:38.726Z,0
2018-02-16T03:09:39.199Z,0
2018-02-16T03:10:38.249Z,0
2018-02-16T03:11:38.713Z,0
2018-02-16T03:12:38.704Z,0
2018-02-16T03:13:38.924Z,0
2018-02-16T03:14:38.670Z,0
2018-02-16T03:15:38.979Z,0
2018-02-16T03:16:38.385Z,0
2018-02-16T03:17:39.140Z,0
2018-02-16T03:18:39.134Z,0
2018-02-16T03:19:39.138Z,0
2018-02-16T03:20:38.649Z,0
2018-02-16T03:21:38.649Z,0
2018-02-16T03:22:38.617Z,0
2018-02-16T03:23:39.102Z,0
2018-02-16T03:24:38.084Z,0
2018-02-16T03:25:38.870Z,0
2018-02-16T03:26:38.832Z,0
2018-02-16T03:27:38.594Z,0
2018-02-16T03:28:38.566Z,0
2018-02-16T03:29:38.567Z,0
2018-02-16T03:30:38.550Z,0
2018-02-16T03:31:39.058Z,0
2018-02-16T03:32:39.047Z,0
2018-02-16T03:33:38.533Z,0
2018-02-16T03:34:38.538Z,0
2018-02-16T03:35:38.250Z,0
2018-02-16T03:36:38.523Z,0
2018-02-16T03:37:41.697Z,0
2018-02-16T03:38:38.776Z,0
2018-02-16T03:39:38.724Z,0
2018-02-16T03:40:38.971Z,0
2018-02-16T03:41:38.732Z,0
2018-02-16T03:42:38.973Z,0
2018-02-16T03:43:38.735Z,0
2018-02-16T03:44:38.722Z,0
2018-02-16T03:45:38.434Z,0
2018-02-16T03:46:38.953Z,0
2018-02-16T03:47:38.701Z,0
2018-02-16T03:48:38.163Z,0
2018-02-16T03:49:38.907Z,0
2018-02-16T03:50:38.945Z,0
2018-02-16T03:51:38.658Z,0
2018-02-16T03:52:38.130Z,0
2018-02-16T03:53:38.126Z,0
2018-02-16T03:54:38.875Z,0
2018-02-16T03:55:38.727Z,0
2018-02-16T03:56:38.638Z,0
2018-02-16T03:57:38.619Z,0
2018-02-16T03:58:38.842Z,0
2018-02-16T03:59:38.610Z,0
2018-02-16T04:00:38.884Z,0
2018-02-16T04:01:38.320Z,0
2018-02-16T04:02:38.579Z,0
2018-02-16T04:03:38.306Z,0
2018-02-16T04:04:38.562Z,0
2018-02-16T04:05:38.414Z,0
2018-02-16T04:06:38.275Z,0
2018-02-16T04:07:38.280Z,0
2018-02-16T04:08:38.469Z,0
2018-02-16T04:09:38.254Z,0
2018-02-16T04:10:38.546Z,0
2018-02-16T04:11:38.506Z,0
2018-02-16T04:12:38.502Z,0
2018-02-16T04:13:38.580Z,0
2018-02-16T04:14:38.483Z,0
2018-02-16T04:15:38.248Z,0
2018-02-16T04:16:38.204Z,0
2018-02-16T04:17:38.471Z,0
2018-02-16T04:18:38.198Z,0
2018-02-16T04:19:38.694Z,0
2018-02-16T04:20:38.746Z,0
2018-02-16T04:21:38.701Z,0
2018-02-16T04:22:37.919Z,0
2018-02-16T04:23:38.411Z,0
2018-02-16T04:24:38.684Z,0
2018-02-16T04:25:38.410Z,0
2018-02-16T04:26:37.895Z,0
2018-02-16T04:27:38.383Z,0
2018-02-16T04:28:38.656Z,0
2018-02-16T04:29:38.129Z,0
2018-02-16T04:30:38.383Z,0
2018-02-16T04:31:38.349Z,0
2018-02-16T04:32:38.094Z,0
2018-02-16T04:33:37.848Z,0
2018-02-16T04:34:38.628Z,0
2018-02-16T04:35:37.816Z,0
2018-02-16T04:36:38.315Z,0
2018-02-16T04:37:38.056Z,0
2018-02-16T04:38:39.557Z,0
2018-02-16T04:39:38.551Z,0
2018-02-16T04:40:38.113Z,0
2018-02-16T04:41:38.284Z,0
2018-02-16T04:42:38.542Z,0
2018-02-16T04:43:38.295Z,0
2018-02-16T04:44:38.258Z,0
2018-02-16T04:45:37.998Z,0
2018-02-16T04:46:38.501Z,0
2018-02-16T04:47:38.493Z,0
2018-02-16T04:48:37.973Z,0
2018-02-16T04:49:37.968Z,0
2018-02-16T04:50:38.014Z,0
2018-02-16T04:51:38.465Z,0
2018-02-16T04:52:37.952Z,0
2018-02-16T04:53:41.455Z,0
2018-02-16T04:54:38.191Z,0
2018-02-16T04:55:38.187Z,0
2018-02-16T04:56:37.923Z,0
2018-02-16T04:57:38.423Z,0
2018-02-16T04:58:37.657Z,0
2018-02-16T04:59:38.000Z,0
2018-02-16T05:00:38.007Z,0
2018-02-16T05:01:37.924Z,0
2018-02-16T05:02:37.880Z,0
2018-02-16T05:03:38.381Z,0
2018-02-16T05:04:38.115Z,0
2018-02-16T05:05:37.870Z,0
2018-02-16T05:06:37.598Z,0
2018-02-16T05:07:38.355Z,0
2018-02-16T05:08:40.529Z,0
2018-02-16T05:09:38.079Z,0
2018-02-16T05:10:38.102Z,0
2018-02-16T05:11:37.834Z,0
2018-02-16T05:12:38.106Z,0
2018-02-16T05:13:37.550Z,0
2018-02-16T05:14:37.790Z,0
2018-02-16T05:15:38.035Z,0
2018-02-16T05:16:38.286Z,0
2018-02-16T05:17:37.262Z,0
2018-02-16T05:18:37.776Z,0
2018-02-16T05:19:38.029Z,0
2018-02-16T05:20:37.819Z,0
2018-02-16T05:21:37.752Z,0
2018-02-16T05:22:37.476Z,0
2018-02-16T05:23:37.723Z,0
2018-02-16T05:24:38.176Z,0
2018-02-16T05:25:37.457Z,0
2018-02-16T05:26:37.718Z,0
2018-02-16T05:27:37.956Z,0
2018-02-16T05:28:37.935Z,0
2018-02-16T05:29:37.688Z,0
2018-02-16T05:30:37.236Z,0
2018-02-16T05:31:37.416Z,0
2018-02-16T05:32:37.913Z,0
2018-02-16T05:33:37.905Z,0
2018-02-16T05:34:37.909Z,0
2018-02-16T05:35:37.892Z,0
2018-02-16T05:36:37.375Z,0
2018-02-16T05:37:37.628Z,0
2018-02-16T05:38:37.623Z,0
2018-02-16T05:39:38.968Z,0
2018-02-16T05:40:37.666Z,0
2018-02-16T05:41:37.852Z,0
2018-02-16T05:42:37.327Z,0
2018-02-16T05:43:37.837Z,0
2018-02-16T05:44:37.573Z,0
2018-02-16T05:45:38.187Z,0
2018-02-16T05:46:37.568Z,0
2018-02-16T05:47:37.798Z,0
2018-02-16T05:48:37.793Z,0
2018-02-16T05:49:37.325Z,0
2018-02-16T05:50:37.587Z,0
2018-02-16T05:51:37.530Z,0
2018-02-16T05:52:37.767Z,0
2018-02-16T05:53:37.759Z,0
2018-02-16T05:54:37.747Z,0
2018-02-16T05:55:37.528Z,0
2018-02-16T05:56:37.735Z,0
2018-02-16T05:57:37.981Z,0
2018-02-16T05:58:37.480Z,0
2018-02-16T05:59:37.974Z,0
2018-02-16T06:00:37.886Z,0
2018-02-16T06:01:37.953Z,0
2018-02-16T06:02:37.689Z,0
2018-02-16T06:03:38.118Z,0
2018-02-16T06:04:38.483Z,0
2018-02-16T06:05:38.187Z,0
2018-02-16T06:06:37.415Z,0
2018-02-16T06:07:37.413Z,0
2018-02-16T06:08:37.651Z,0
2018-02-16T06:09:41.945Z,0
2018-02-16T06:10:37.684Z,0
2018-02-16T06:11:37.876Z,0
2018-02-16T06:12:37.628Z,0
2018-02-16T06:13:37.370Z,0
2018-02-16T06:14:37.349Z,0
2018-02-16T06:15:37.357Z,0
2018-02-16T06:16:37.589Z,0
2018-02-16T06:17:37.585Z,0
2018-02-16T06:18:37.587Z,0
2018-02-16T06:19:37.578Z,0
2018-02-16T06:20:37.905Z,0
2018-02-16T06:21:37.563Z,0
2018-02-16T06:22:37.545Z,0
2018-02-16T06:23:37.536Z,0
2018-02-16T06:24:37.790Z,0
2018-02-16T06:25:37.552Z,0
2018-02-16T06:26:37.773Z,0
2018-02-16T06:27:37.254Z,0
2018-02-16T06:28:37.767Z,0
2018-02-16T06:29:37.504Z,0
2018-02-16T06:30:37.525Z,0
2018-02-16T06:31:36.992Z,0
2018-02-16T06:32:37.232Z,0
2018-02-16T06:33:37.507Z,0
2018-02-16T06:34:37.243Z,0
2018-02-16T06:35:37.284Z,0
2018-02-16T06:36:37.456Z,0
2018-02-16T06:37:36.946Z,0
2018-02-16T06:38:37.437Z,0
2018-02-16T06:39:37.442Z,5
2018-02-16T06:40:38.355Z,5
2018-02-16T06:41:36.663Z,5
2018-02-16T06:42:37.411Z,5
2018-02-16T06:43:36.890Z,5
2018-02-16T06:44:37.644Z,5
2018-02-16T06:45:37.751Z,5
2018-02-16T06:46:37.120Z,5
2018-02-16T06:47:37.116Z,5
2018-02-16T06:48:37.111Z,5
2018-02-16T06:49:37.111Z,5
2018-02-16T06:50:37.465Z,5
2018-02-16T06:51:37.092Z,5
2018-02-16T06:52:37.339Z,10
2018-02-16T06:53:37.589Z,10
2018-02-16T06:54:37.077Z,10
2018-02-16T06:55:37.458Z,10
2018-02-16T06:56:37.312Z,10
2018-02-16T06:57:37.316Z,10
2018-02-16T06:58:37.294Z,10
2018-02-16T06:59:37.042Z,15
2018-02-16T07:00:36.881Z,15
2018-02-16T07:01:37.038Z,15
2018-02-16T07:02:37.281Z,20
2018-02-16T07:03:37.526Z,20
2018-02-16T07:04:37.022Z,20
2018-02-16T07:05:37.067Z,20
2018-02-16T07:06:37.239Z,25
2018-02-16T07:07:37.321Z,25
2018-02-16T07:08:37.271Z,30
2018-02-16T07:09:37.502Z,30
2018-02-16T07:10:36.745Z,30
2018-02-16T07:11:37.213Z,30
2018-02-16T07:12:36.698Z,30
2018-02-16T07:13:36.945Z,30
2018-02-16T07:14:36.942Z,30
2018-02-16T07:15:37.266Z,30
2018-02-16T07:16:36.672Z,30
2018-02-16T07:17:37.167Z,30
2018-02-16T07:18:37.417Z,30
2018-02-16T07:19:36.654Z,30
2018-02-16T07:20:36.642Z,30
2018-02-16T07:21:37.448Z,30
2018-02-16T07:22:37.137Z,30
2018-02-16T07:23:36.889Z,30
2018-02-16T07:24:37.390Z,30
2018-02-16T07:25:40.159Z,30
2018-02-16T07:26:36.852Z,30
2018-02-16T07:27:37.102Z,35
2018-02-16T07:28:37.351Z,35
2018-02-16T07:29:37.105Z,35
2018-02-16T07:30:36.896Z,35
2018-02-16T07:31:37.080Z,35
2018-02-16T07:32:37.082Z,35
2018-02-16T07:33:36.823Z,35
2018-02-16T07:34:36.554Z,40
2018-02-16T07:35:37.157Z,40
2018-02-16T07:36:37.090Z,40
2018-02-16T07:37:37.294Z,35
2018-02-16T07:38:36.780Z,40
2018-02-16T07:39:37.022Z,40
2018-02-16T07:40:37.036Z,40
2018-02-16T07:41:37.132Z,45
2018-02-16T07:42:37.419Z,45
2018-02-16T07:43:36.981Z,40
2018-02-16T07:44:36.955Z,40
2018-02-16T07:45:37.407Z,40
2018-02-16T07:46:37.076Z,40
2018-02-16T07:47:36.957Z,45
2018-02-16T07:48:36.879Z,40
2018-02-16T07:49:36.989Z,40
2018-02-16T07:50:37.249Z,35
2018-02-16T07:51:37.204Z,35
2018-02-16T07:52:36.942Z,35
2018-02-16T07:53:36.681Z,40
2018-02-16T07:54:36.677Z,35
2018-02-16T07:55:36.972Z,35
2018-02-16T07:56:36.966Z,30
2018-02-16T07:57:36.403Z,35
2018-02-16T07:58:36.396Z,35
2018-02-16T07:59:36.898Z,40
2018-02-16T08:00:36.907Z,40
2018-02-16T08:01:36.880Z,40
2018-02-16T08:02:36.880Z,45
2018-02-16T08:03:36.873Z,45
2018-02-16T08:04:36.886Z,45
2018-02-16T08:05:36.968Z,45
2018-02-16T08:06:36.633Z,45
2018-02-16T08:07:36.658Z,45
2018-02-16T08:08:36.596Z,45
2018-02-16T08:09:37.102Z,45
2018-02-16T08:10:36.604Z,45
2018-02-16T08:11:37.160Z,50
2018-02-16T08:12:36.828Z,50
2018-02-16T08:13:36.570Z,50
2018-02-16T08:14:36.808Z,50
2018-02-16T08:15:36.592Z,50
2018-02-16T08:16:37.049Z,50
2018-02-16T08:17:36.287Z,45
2018-02-16T08:18:36.805Z,45
2018-02-16T08:19:36.269Z,40
2018-02-16T08:20:37.079Z,40
2018-02-16T08:21:36.526Z,40
2018-02-16T08:22:36.755Z,35
2018-02-16T08:23:36.748Z,35
2018-02-16T08:24:36.491Z,35
2018-02-16T08:25:36.307Z,35
2018-02-16T08:26:37.033Z,35
2018-02-16T08:27:36.986Z,40
2018-02-16T08:28:36.213Z,40
2018-02-16T08:29:36.985Z,45
2018-02-16T08:30:36.832Z,45
2018-02-16T08:31:36.704Z,45
2018-02-16T08:32:36.710Z,45
2018-02-16T08:33:36.695Z,50
2018-02-16T08:34:36.681Z,50
2018-02-16T08:35:36.531Z,50
2018-02-16T08:36:36.934Z,50
2018-02-16T08:37:36.420Z,50
2018-02-16T08:39:08.805Z,50
2018-02-16T08:39:36.698Z,50
2018-02-16T08:40:36.443Z,50
2018-02-16T08:41:37.631Z,50
2018-02-16T08:42:36.894Z,50
2018-02-16T08:43:36.378Z,50
2018-02-16T08:44:36.685Z,55
2018-02-16T08:45:36.366Z,55
2018-02-16T08:46:36.360Z,55
2018-02-16T08:47:36.606Z,55
2018-02-16T08:48:36.352Z,55
2018-02-16T08:49:36.332Z,60
2018-02-16T08:50:36.648Z,60
2018-02-16T08:51:36.325Z,60
2018-02-16T08:52:36.067Z,60
2018-02-16T08:53:36.563Z,60
2018-02-16T08:54:36.561Z,60
2018-02-16T08:55:36.368Z,60
2018-02-16T08:56:37.111Z,60
2018-02-16T08:57:36.557Z,65
2018-02-16T08:58:36.534Z,70
2018-02-16T08:59:36.287Z,70
2018-02-16T09:00:36.296Z,70
2018-02-16T09:01:36.582Z,75
2018-02-16T09:02:36.525Z,80
2018-02-16T09:03:36.761Z,80
2018-02-16T09:04:36.759Z,80
2018-02-16T09:05:36.644Z,80
2018-02-16T09:06:36.609Z,75
2018-02-16T09:07:36.516Z,75
2018-02-16T09:08:36.492Z,80
2018-02-16T09:09:36.731Z,85
2018-02-16T09:10:36.284Z,85
2018-02-16T09:11:36.461Z,90
2018-02-16T09:12:38.633Z,95
2018-02-16T09:13:36.481Z,100
2018-02-16T09:14:35.958Z,100
2018-02-16T09:15:36.769Z,110
2018-02-16T09:16:36.184Z,120
2018-02-16T09:17:36.703Z,130
2018-02-16T09:18:36.430Z,135
2018-02-16T09:19:36.427Z,140
2018-02-16T09:20:36.458Z,145
2018-02-16T09:21:36.429Z,150
2018-02-16T09:22:36.423Z,155
2018-02-16T09:23:36.672Z,155
2018-02-16T09:24:36.405Z,155
2018-02-16T09:25:36.188Z,160
2018-02-16T09:26:35.880Z,165
2018-02-16T09:27:37.730Z,165
2018-02-16T09:28:36.120Z,160
2018-02-16T09:29:36.371Z,165
2018-02-16T09:30:36.131Z,175
2018-02-16T09:31:36.364Z,180
2018-02-16T09:32:36.355Z,185
2018-02-16T09:33:36.109Z,185
2018-02-16T09:34:36.352Z,180
2018-02-16T09:35:36.612Z,170
2018-02-16T09:36:35.578Z,170
2018-02-16T09:37:36.595Z,170
2018-02-16T09:38:36.092Z,170
2018-02-16T09:39:36.074Z,175
2018-02-16T09:40:36.365Z,190
2018-02-16T09:41:36.331Z,200
2018-02-16T09:42:36.363Z,190
2018-02-16T09:43:36.066Z,195
2018-02-16T09:44:36.318Z,205
2018-02-16T09:45:36.082Z,195
2018-02-16T09:46:35.803Z,195
2018-02-16T09:47:36.048Z,195
2018-02-16T09:48:36.049Z,220
2018-02-16T09:49:36.036Z,230
2018-02-16T09:50:36.333Z,210
2018-02-16T09:51:36.312Z,205
2018-02-16T09:52:36.039Z,200
2018-02-16T09:53:36.276Z,195
2018-02-16T09:54:36.042Z,200
2018-02-16T09:55:36.300Z,195
2018-02-16T09:56:36.025Z,200
2018-02-16T09:57:35.760Z,205
2018-02-16T09:58:35.775Z,235
2018-02-16T09:59:36.266Z,215
2018-02-16T10:00:36.365Z,230
2018-02-16T10:01:36.266Z,215
2018-02-16T10:02:36.274Z,215
2018-02-16T10:03:36.002Z,210
2018-02-16T10:04:35.993Z,215
2018-02-16T10:05:36.041Z,210
2018-02-16T10:06:35.731Z,210
2018-02-16T10:07:35.734Z,190
2018-02-16T10:08:35.982Z,180
2018-02-16T10:09:35.732Z,180
2018-02-16T10:10:36.572Z,180
2018-02-16T10:11:36.229Z,185
2018-02-16T10:12:36.489Z,190
2018-02-16T10:13:35.962Z,185
2018-02-16T10:14:35.958Z,180
2018-02-16T10:15:35.967Z,175
2018-02-16T10:16:36.224Z,175
2018-02-16T10:17:35.460Z,185
2018-02-16T10:18:35.963Z,205
2018-02-16T10:19:35.696Z,215
2018-02-16T10:20:35.519Z,220
2018-02-16T10:21:35.704Z,210
2018-02-16T10:22:36.444Z,200
2018-02-16T10:23:36.190Z,190
2018-02-16T10:24:35.938Z,185
2018-02-16T10:55:20.458Z,190
2018-02-16T10:56:17.660Z,190
2018-02-16T10:57:17.635Z,195
2018-02-16T10:58:17.891Z,195
2018-02-16T10:59:17.619Z,190
2018-02-16T11:00:19.229Z,185
2018-02-16T11:01:17.903Z,170
2018-02-16T11:02:18.116Z,160
2018-02-16T11:03:17.568Z,140
2018-02-16T11:04:17.302Z,130
2018-02-16T11:05:20.443Z,125
2018-02-16T11:06:18.060Z,125
2018-02-16T11:07:17.293Z,120
2018-02-16T11:08:17.798Z,110
2018-02-16T11:09:17.550Z,100
2018-02-16T11:10:19.322Z,95
2018-02-16T11:11:17.267Z,95
2018-02-16T11:12:17.262Z,90
2018-02-16T11:13:17.510Z,90
2018-02-16T11:14:17.761Z,90
2018-02-16T11:15:19.455Z,90
2018-02-16T11:16:17.755Z,95
2018-02-16T11:17:17.999Z,105
2018-02-16T11:18:17.761Z,105
2018-02-16T11:19:17.741Z,105
2018-02-16T11:20:18.704Z,105
2018-02-16T11:21:17.472Z,115
2018-02-16T11:22:17.999Z,125
2018-02-16T11:23:17.722Z,135
2018-02-16T11:24:17.480Z,140
2018-02-16T11:25:21.116Z,150
2018-02-16T11:26:17.468Z,155
2018-02-16T11:27:17.713Z,160
2018-02-16T11:28:17.448Z,165
2018-02-16T11:29:17.689Z,170
2018-02-16T11:30:19.625Z,175
2018-02-16T11:31:17.937Z,180
2018-02-16T11:32:17.724Z,185
2018-02-16T11:33:16.919Z,185
2018-02-16T11:34:17.981Z,180
2018-02-16T11:35:19.206Z,175
2018-02-16T11:36:17.912Z,170
2018-02-16T11:37:17.147Z,165
2018-02-16T11:38:17.397Z,160
2018-02-16T11:39:17.650Z,165
2018-02-16T11:40:19.200Z,170
2018-02-16T11:41:17.351Z,170
2018-02-16T11:42:17.632Z,175
2018-02-16T11:43:17.376Z,175
2018-02-16T11:44:17.637Z,175
2018-02-16T11:45:18.277Z,175
2018-02-16T11:46:17.614Z,185
2018-02-16T11:47:17.862Z,190
2018-02-16T11:48:17.358Z,195
2018-02-16T11:49:17.344Z,195
2018-02-16T11:50:19.518Z,200
2018-02-16T11:51:17.595Z,200
2018-02-16T11:52:17.592Z,205
2018-02-16T11:53:17.329Z,205
2018-02-16T11:54:17.582Z,215
2018-02-16T11:55:18.323Z,215
2018-02-16T11:56:18.171Z,215
2018-02-16T11:57:16.807Z,215
2018-02-16T11:58:17.554Z,220
2018-02-16T11:59:17.312Z,200
2018-02-16T12:00:19.591Z,215
2018-02-16T12:01:17.804Z,220
2018-02-16T12:02:17.808Z,230
2018-02-16T12:03:17.793Z,225
2018-02-16T12:04:17.787Z,205
2018-02-16T12:05:18.842Z,185
2018-02-16T12:06:17.785Z,175
2018-02-16T12:07:17.284Z,165
2018-02-16T12:08:17.020Z,160
2018-02-16T12:09:17.269Z,160
2018-02-16T12:10:19.181Z,190
2018-02-16T12:11:17.559Z,205
2018-02-16T12:12:17.511Z,200
2018-02-16T12:13:17.531Z,180
2018-02-16T12:14:17.502Z,165
2018-02-16T12:15:19.160Z,190
2018-02-16T12:16:17.493Z,195
2018-02-16T12:17:17.004Z,180
2018-02-16T12:18:17.487Z,200
2018-02-16T12:19:17.231Z,200
2018-02-16T12:20:18.943Z,200
2018-02-16T12:21:16.968Z,205
2018-02-16T12:22:17.219Z,210
2018-02-16T12:23:16.976Z,215
2018-02-16T12:24:16.954Z,210
2018-02-16T12:25:18.452Z,210
2018-02-16T12:26:17.510Z,195
2018-02-16T12:27:17.450Z,185
2018-02-16T12:28:17.195Z,190
2018-02-16T12:29:17.198Z,195
2018-02-16T12:30:18.709Z,200
2018-02-16T12:31:17.438Z,200
2018-02-16T12:32:17.437Z,195
2018-02-16T12:33:17.182Z,195
2018-02-16T12:34:17.701Z,200
2018-02-16T12:35:18.446Z,195
2018-02-16T12:36:16.909Z,195
2018-02-16T12:37:17.422Z,195
2018-02-16T12:38:17.406Z,185
2018-02-16T12:39:17.172Z,185
2018-02-16T12:40:19.111Z,185
2018-02-16T12:41:18.144Z,180
2018-02-16T12:42:17.412Z,175
2018-02-16T12:43:17.397Z,170
2018-02-16T12:44:17.132Z,160
2018-02-16T12:45:19.423Z,155
2018-02-16T12:46:17.394Z,145
2018-02-16T12:47:17.383Z,140
2018-02-16T12:48:17.123Z,135
2018-02-16T12:49:17.379Z,125
2018-02-16T12:50:18.706Z,125
2018-02-16T12:51:17.625Z,130
2018-02-16T12:52:16.863Z,130
2018-02-16T12:53:17.125Z,130
2018-02-16T12:54:17.114Z,140
2018-02-16T12:55:18.791Z,150
2018-02-16T12:56:17.668Z,155
2018-02-16T12:57:17.124Z,160
2018-02-16T12:58:17.124Z,175
2018-02-16T12:59:17.347Z,180
2018-02-16T13:00:19.285Z,180
2018-02-16T13:01:17.351Z,175
2018-02-16T13:02:17.353Z,175
2018-02-16T13:03:16.829Z,175
2018-02-16T13:04:17.120Z,175
2018-02-16T13:05:18.568Z,170
2018-02-16T13:06:17.326Z,175
2018-02-16T13:07:16.815Z,175
2018-02-16T13:08:17.322Z,175
2018-02-16T13:09:17.059Z,180
2018-02-16T13:10:19.462Z,175
2018-02-16T13:11:17.137Z,175
2018-02-16T13:12:17.315Z,180
2018-02-16T13:13:17.324Z,185
2018-02-16T13:14:17.577Z,175
2018-02-16T13:15:19.440Z,175
2018-02-16T13:16:17.308Z,175
2018-02-16T13:17:17.283Z,170
2018-02-16T13:18:17.290Z,165
2018-02-16T13:19:17.093Z,165
2018-02-16T13:20:17.813Z,165
2018-02-16T13:21:17.031Z,160
2018-02-16T13:22:17.037Z,155
2018-02-16T13:23:17.533Z,160
2018-02-16T13:24:17.265Z,170
2018-02-16T13:25:18.111Z,170
2018-02-16T13:26:17.059Z,175
2018-02-16T13:27:17.011Z,175
2018-02-16T13:28:17.008Z,180
2018-02-16T13:29:17.012Z,175
2018-02-16T13:30:18.883Z,170
2018-02-16T13:31:16.992Z,165
2018-02-16T13:32:17.503Z,160
2018-02-16T13:33:17.232Z,160
2018-02-16T13:34:16.987Z,165
2018-02-16T13:35:18.834Z,165
2018-02-16T13:36:17.251Z,165
2018-02-16T13:37:17.482Z,160
2018-02-16T13:38:17.476Z,160
2018-02-16T13:39:17.215Z,160
2018-02-16T13:40:18.456Z,155
2018-02-16T13:41:22.325Z,150
2018-02-16T13:42:16.952Z,145
2018-02-16T13:43:17.213Z,145
2018-02-16T13:44:16.951Z,140
2018-02-16T13:45:19.160Z,135
2018-02-16T13:46:16.944Z,150
2018-02-16T13:47:16.947Z,135
2018-02-16T13:48:16.691Z,130
2018-02-16T13:49:16.687Z,130
2018-02-16T13:50:18.772Z,130
2018-02-16T13:51:17.184Z,135
2018-02-16T13:52:16.924Z,130
2018-02-16T13:53:16.926Z,130
2018-02-16T13:54:17.181Z,130
2018-02-16T13:55:19.097Z,130
2018-02-16T13:56:17.412Z,130
2018-02-16T13:57:17.457Z,130
2018-02-16T13:58:17.161Z,135
2018-02-16T13:59:16.913Z,135
2018-02-16T14:00:19.072Z,135
2018-02-16T14:01:17.163Z,130
2018-02-16T14:02:17.234Z,130
2018-02-16T14:03:16.884Z,135
2018-02-16T14:04:16.890Z,135
2018-02-16T14:05:18.417Z,130
2018-02-16T14:06:16.939Z,130
2018-02-16T14:07:17.132Z,130
2018-02-16T14:08:17.128Z,130
2018-02-16T14:09:16.875Z,125
2018-02-16T14:10:18.620Z,130
2018-02-16T14:11:17.122Z,125
2018-02-16T14:12:18.653Z,130
2018-02-16T14:13:16.858Z,135
2018-02-16T14:14:16.851Z,140
2018-02-16T14:15:18.145Z,140
2018-02-16T14:16:17.098Z,145
2018-02-16T14:17:17.112Z,145
2018-02-16T14:18:17.181Z,140
2018-02-16T14:19:16.837Z,140
2018-02-16T14:20:17.866Z,135
2018-02-16T14:21:16.842Z,135
2018-02-16T14:22:17.076Z,130
2018-02-16T14:23:16.820Z,135
2018-02-16T14:24:17.325Z,125
2018-02-16T14:25:18.746Z,125
2018-02-16T14:26:16.824Z,125
2018-02-16T14:27:18.175Z,125
2018-02-16T14:28:16.809Z,130
2018-02-16T14:29:16.291Z,130
2018-02-16T14:30:18.488Z,125
2018-02-16T14:31:17.052Z,125
2018-02-16T14:32:16.786Z,125
2018-02-16T14:33:16.794Z,120
2018-02-16T14:34:16.785Z,120
2018-02-16T14:35:18.217Z,125
2018-02-16T14:36:17.028Z,130
2018-02-16T14:37:17.304Z,130
2018-02-16T14:38:16.517Z,125
2018-02-16T14:39:16.757Z,120
2018-02-16T14:40:18.690Z,120
2018-02-16T14:41:16.766Z,125
2018-02-16T14:42:17.010Z,130
2018-02-16T14:43:21.257Z,130
2018-02-16T14:44:17.252Z,140
2018-02-16T14:45:18.082Z,140
2018-02-16T14:46:17.007Z,135
2018-02-16T14:47:17.040Z,130
2018-02-16T14:48:17.078Z,130
2018-02-16T14:49:16.978Z,125